Terminal Aerodrome Forecast
Issued by NWS

Home | Current Version | Previous Version | Graphics & Text | Print | Product List | Glossary On
Versions: 1 2 3 4 5 6 7 8 9 10 11 12 13 14 15 16 17 18 19 20 21 22 23 24 25
000
FTUS43 KMPX 290528 CCA
TAFRNH
TAF COR
KRNH 290528Z 2906/3006 33003KT 3SM BR SCT015 SCT100
      TEMPO 2906/2909 1SM BR BKN002
     FM290900 00000KT 2SM BR BKN002
      TEMPO 2909/2913 1/2SM FG VV001
     FM291300 31007KT P6SM BKN100
     FM292000 32010G18KT P6SM VCTS SCT050CB BKN120
     FM300300 33007KT P6SM SKC=

USA.gov is the U.S. government's official web portal to all federal, state and local government web resources and services.